Manton, Michigan
Current Conditions -  °F | °C
As of 5:55 AM on Friday 31 Oct 2014 (Local Time) from KCAD Reporting Station
Overcast Overcast  
Wind Chill: 36°   Ceiling: 7000
Heat Index: 36°   Visibility: 10mi
Dew Point: 35°   Wind: 0mph
Humidity: 96%   Direction: NA
Pressure: 29.87"   Gusts: NA
Location:  44.41°N, 85.4°W
Report Text: KCAD 310955Z AUTO 00000KT 10SM SCT037 BKN070 OVC110 02/01 A2987 RMK AO2 T00200014
Loading
Personal Weather Stations






























Interactive Weather Map
Tropical Storm Tracking
New forecast layout! Learn more

10-Day Weather Forecast

Advertisements
Track Severe Weather on mobile